sensor_id;sensor_type;location;lat;lon;timestamp;temperature;humidity
53748;DHT22;39655;53.210;5.768;2023-05-10T00:01:30;12.30;96.50
53748;DHT22;39655;53.210;5.768;2023-05-10T00:03:56;12.30;96.70
53748;DHT22;39655;53.210;5.768;2023-05-10T00:06:21;12.30;96.60
53748;DHT22;39655;53.210;5.768;2023-05-10T00:08:47;12.30;96.50
53748;DHT22;39655;53.210;5.768;2023-05-10T00:11:13;12.20;96.70
53748;DHT22;39655;53.210;5.768;2023-05-10T00:13:39;12.30;96.80
53748;DHT22;39655;53.210;5.768;2023-05-10T00:16:05;12.30;96.90
53748;DHT22;39655;53.210;5.768;2023-05-10T00:18:30;12.20;96.80
53748;DHT22;39655;53.210;5.768;2023-05-10T00:20:56;12.20;96.80
53748;DHT22;39655;53.210;5.768;2023-05-10T00:23:21;12.30;97.10
53748;DHT22;39655;53.210;5.768;2023-05-10T00:25:47;12.30;97.00
53748;DHT22;39655;53.210;5.768;2023-05-10T00:28:13;12.20;96.90
53748;DHT22;39655;53.210;5.768;2023-05-10T00:30:38;12.20;97.00
53748;DHT22;39655;53.210;5.768;2023-05-10T00:33:04;12.20;96.90
53748;DHT22;39655;53.210;5.768;2023-05-10T00:35:30;12.10;96.90
53748;DHT22;39655;53.210;5.768;2023-05-10T00:37:56;12.10;96.80
53748;DHT22;39655;53.210;5.768;2023-05-10T00:40:21;12.10;97.00
53748;DHT22;39655;53.210;5.768;2023-05-10T00:42:47;12.10;97.10
53748;DHT22;39655;53.210;5.768;2023-05-10T00:45:13;12.10;97.00
53748;DHT22;39655;53.210;5.768;2023-05-10T00:47:39;12.10;97.10
53748;DHT22;39655;53.210;5.768;2023-05-10T00:50:05;12.00;97.00
53748;DHT22;39655;53.210;5.768;2023-05-10T00:52:32;12.10;97.10
53748;DHT22;39655;53.210;5.768;2023-05-10T00:54:57;12.10;97.00
53748;DHT22;39655;53.210;5.768;2023-05-10T00:57:24;12.10;97.00
53748;DHT22;39655;53.210;5.768;2023-05-10T00:59:50;12.00;97.10
53748;DHT22;39655;53.210;5.768;2023-05-10T01:02:16;12.00;97.20
53748;DHT22;39655;53.210;5.768;2023-05-10T01:04:44;12.10;97.10
53748;DHT22;39655;53.210;5.768;2023-05-10T01:07:10;12.00;96.90
53748;DHT22;39655;53.210;5.768;2023-05-10T01:09:36;12.00;97.10
53748;DHT22;39655;53.210;5.768;2023-05-10T01:12:05;11.90;97.00
53748;DHT22;39655;53.210;5.768;2023-05-10T01:14:33;11.90;97.20
53748;DHT22;39655;53.210;5.768;2023-05-10T01:17:02;12.00;97.30
53748;DHT22;39655;53.210;5.768;2023-05-10T01:19:30;11.90;97.20
53748;DHT22;39655;53.210;5.768;2023-05-10T01:36:05;12.00;97.20
53748;DHT22;39655;53.210;5.768;2023-05-10T01:41:12;12.00;97.30
53748;DHT22;39655;53.210;5.768;2023-05-10T01:43:57;12.00;97.30
53748;DHT22;39655;53.210;5.768;2023-05-10T01:46:35;12.10;97.50
53748;DHT22;39655;53.210;5.768;2023-05-10T01:49:29;12.10;97.50
53748;DHT22;39655;53.210;5.768;2023-05-10T01:52:04;12.00;97.40
53748;DHT22;39655;53.210;5.768;2023-05-10T01:54:34;12.00;97.30
53748;DHT22;39655;53.210;5.768;2023-05-10T01:57:06;12.10;97.30
53748;DHT22;39655;53.210;5.768;2023-05-10T01:59:35;12.10;97.40
53748;DHT22;39655;53.210;5.768;2023-05-10T02:02:05;12.10;97.40
53748;DHT22;39655;53.210;5.768;2023-05-10T02:04:35;12.10;97.40
53748;DHT22;39655;53.210;5.768;2023-05-10T02:07:03;12.10;97.40
53748;DHT22;39655;53.210;5.768;2023-05-10T02:09:30;12.10;97.30
53748;DHT22;39655;53.210;5.768;2023-05-10T02:11:58;12.20;97.30
53748;DHT22;39655;53.210;5.768;2023-05-10T02:14:26;12.20;97.30
53748;DHT22;39655;53.210;5.768;2023-05-10T02:16:53;12.10;97.20
53748;DHT22;39655;53.210;5.768;2023-05-10T02:19:22;12.20;97.20
53748;DHT22;39655;53.210;5.768;2023-05-10T02:21:49;12.20;97.10
53748;DHT22;39655;53.210;5.768;2023-05-10T02:24:17;12.20;97.00
53748;DHT22;39655;53.210;5.768;2023-05-10T02:26:45;12.10;97.10
53748;DHT22;39655;53.210;5.768;2023-05-10T02:29:12;12.20;97.20
53748;DHT22;39655;53.210;5.768;2023-05-10T02:31:44;12.10;97.10
53748;DHT22;39655;53.210;5.768;2023-05-10T02:34:11;12.10;97.20
53748;DHT22;39655;53.210;5.768;2023-05-10T02:36:40;12.10;97.30
53748;DHT22;39655;53.210;5.768;2023-05-10T02:39:10;12.10;97.20
53748;DHT22;39655;53.210;5.768;2023-05-10T02:41:40;12.10;97.10
53748;DHT22;39655;53.210;5.768;2023-05-10T02:44:07;12.00;97.10
53748;DHT22;39655;53.210;5.768;2023-05-10T02:46:34;12.00;97.20
53748;DHT22;39655;53.210;5.768;2023-05-10T02:49:01;12.00;97.20
53748;DHT22;39655;53.210;5.768;2023-05-10T02:51:31;12.00;97.30
53748;DHT22;39655;53.210;5.768;2023-05-10T02:53:58;12.00;97.20
53748;DHT22;39655;53.210;5.768;2023-05-10T02:56:33;12.00;97.30
53748;DHT22;39655;53.210;5.768;2023-05-10T02:59:00;12.00;97.30
53748;DHT22;39655;53.210;5.768;2023-05-10T03:01:26;12.00;97.40
53748;DHT22;39655;53.210;5.768;2023-05-10T03:03:52;12.00;97.40
53748;DHT22;39655;53.210;5.768;2023-05-10T03:06:18;12.00;97.50
53748;DHT22;39655;53.210;5.768;2023-05-10T03:08:44;11.90;97.40
53748;DHT22;39655;53.210;5.768;2023-05-10T03:11:32;12.00;97.50
53748;DHT22;39655;53.210;5.768;2023-05-10T03:17:10;12.00;97.60
53748;DHT22;39655;53.210;5.768;2023-05-10T03:19:50;12.00;97.60
53748;DHT22;39655;53.210;5.768;2023-05-10T03:22:24;11.90;97.50
53748;DHT22;39655;53.210;5.768;2023-05-10T03:24:53;11.90;97.70
53748;DHT22;39655;53.210;5.768;2023-05-10T03:27:22;11.90;97.60
53748;DHT22;39655;53.210;5.768;2023-05-10T03:29:49;11.80;97.60
53748;DHT22;39655;53.210;5.768;2023-05-10T03:32:16;11.90;97.70
53748;DHT22;39655;53.210;5.768;2023-05-10T03:34:42;11.90;97.80
53748;DHT22;39655;53.210;5.768;2023-05-10T03:37:09;11.90;97.80
53748;DHT22;39655;53.210;5.768;2023-05-10T03:39:34;11.90;97.80
53748;DHT22;39655;53.210;5.768;2023-05-10T03:42:00;11.80;97.70
53748;DHT22;39655;53.210;5.768;2023-05-10T03:44:26;11.90;97.80
53748;DHT22;39655;53.210;5.768;2023-05-10T03:46:52;11.90;97.90
53748;DHT22;39655;53.210;5.768;2023-05-10T03:49:17;11.90;97.90
53748;DHT22;39655;53.210;5.768;2023-05-10T03:51:43;11.90;97.90
53748;DHT22;39655;53.210;5.768;2023-05-10T03:54:09;11.80;97.90
53748;DHT22;39655;53.210;5.768;2023-05-10T03:56:34;11.90;98.00
53748;DHT22;39655;53.210;5.768;2023-05-10T03:59:00;11.90;98.10
53748;DHT22;39655;53.210;5.768;2023-05-10T04:01:26;11.90;98.00
53748;DHT22;39655;53.210;5.768;2023-05-10T04:03:52;11.80;98.00
53748;DHT22;39655;53.210;5.768;2023-05-10T04:06:17;11.80;97.90
53748;DHT22;39655;53.210;5.768;2023-05-10T04:08:43;11.80;98.00
53748;DHT22;39655;53.210;5.768;2023-05-10T04:11:10;11.80;97.90
53748;DHT22;39655;53.210;5.768;2023-05-10T04:13:37;11.80;98.10
53748;DHT22;39655;53.210;5.768;2023-05-10T04:16:04;11.80;98.20
53748;DHT22;39655;53.210;5.768;2023-05-10T04:18:30;11.80;98.10
53748;DHT22;39655;53.210;5.768;2023-05-10T04:20:56;11.80;98.10
53748;DHT22;39655;53.210;5.768;2023-05-10T04:23:21;11.80;98.20
53748;DHT22;39655;53.210;5.768;2023-05-10T04:25:47;11.80;98.20
53748;DHT22;39655;53.210;5.768;2023-05-10T04:28:13;11.80;98.20
53748;DHT22;39655;53.210;5.768;2023-05-10T04:30:38;11.80;98.20
53748;DHT22;39655;53.210;5.768;2023-05-10T04:33:04;11.80;98.20
53748;DHT22;39655;53.210;5.768;2023-05-10T04:35:30;11.80;98.30
53748;DHT22;39655;53.210;5.768;2023-05-10T04:37:55;11.80;98.30
53748;DHT22;39655;53.210;5.768;2023-05-10T04:40:21;11.80;98.30
53748;DHT22;39655;53.210;5.768;2023-05-10T04:42:47;11.70;98.20
53748;DHT22;39655;53.210;5.768;2023-05-10T04:45:13;11.80;98.20
53748;DHT22;39655;53.210;5.768;2023-05-10T04:47:40;11.70;98.30
53748;DHT22;39655;53.210;5.768;2023-05-10T04:50:06;11.70;98.30
53748;DHT22;39655;53.210;5.768;2023-05-10T04:52:32;11.80;98.40
53748;DHT22;39655;53.210;5.768;2023-05-10T04:54:58;11.70;98.30
53748;DHT22;39655;53.210;5.768;2023-05-10T04:57:24;11.80;98.30
53748;DHT22;39655;53.210;5.768;2023-05-10T04:59:50;11.80;98.40
53748;DHT22;39655;53.210;5.768;2023-05-10T05:02:16;11.70;98.30
53748;DHT22;39655;53.210;5.768;2023-05-10T05:04:42;11.90;98.40
53748;DHT22;39655;53.210;5.768;2023-05-10T05:07:07;11.90;98.40
53748;DHT22;39655;53.210;5.768;2023-05-10T05:09:33;11.80;98.40
53748;DHT22;39655;53.210;5.768;2023-05-10T05:11:58;11.80;98.40
53748;DHT22;39655;53.210;5.768;2023-05-10T05:14:24;11.80;98.30
53748;DHT22;39655;53.210;5.768;2023-05-10T05:16:51;11.90;98.50
53748;DHT22;39655;53.210;5.768;2023-05-10T05:19:17;11.80;98.50
53748;DHT22;39655;53.210;5.768;2023-05-10T05:21:43;11.80;98.50
53748;DHT22;39655;53.210;5.768;2023-05-10T05:24:09;11.80;98.40
53748;DHT22;39655;53.210;5.768;2023-05-10T05:26:35;11.90;98.50
53748;DHT22;39655;53.210;5.768;2023-05-10T05:29:02;11.80;98.50
53748;DHT22;39655;53.210;5.768;2023-05-10T05:31:28;11.80;98.40
53748;DHT22;39655;53.210;5.768;2023-05-10T05:33:54;11.80;98.50
53748;DHT22;39655;53.210;5.768;2023-05-10T05:36:19;11.90;98.50
53748;DHT22;39655;53.210;5.768;2023-05-10T05:38:45;11.90;98.50
53748;DHT22;39655;53.210;5.768;2023-05-10T05:41:11;11.90;98.50
53748;DHT22;39655;53.210;5.768;2023-05-10T05:43:36;11.90;98.60
53748;DHT22;39655;53.210;5.768;2023-05-10T05:46:02;11.90;98.50
53748;DHT22;39655;53.210;5.768;2023-05-10T05:48:30;11.90;98.60
53748;DHT22;39655;53.210;5.768;2023-05-10T05:50:55;12.00;98.60
53748;DHT22;39655;53.210;5.768;2023-05-10T05:53:22;12.00;98.60
53748;DHT22;39655;53.210;5.768;2023-05-10T05:55:52;12.00;98.70
53748;DHT22;39655;53.210;5.768;2023-05-10T05:58:18;12.00;98.60
53748;DHT22;39655;53.210;5.768;2023-05-10T06:00:44;12.10;98.70
53748;DHT22;39655;53.210;5.768;2023-05-10T06:03:10;12.10;98.60
53748;DHT22;39655;53.210;5.768;2023-05-10T06:05:35;12.10;98.60
53748;DHT22;39655;53.210;5.768;2023-05-10T06:08:01;12.10;98.60
53748;DHT22;39655;53.210;5.768;2023-05-10T06:10:27;12.10;98.60
53748;DHT22;39655;53.210;5.768;2023-05-10T06:12:52;12.10;98.60
53748;DHT22;39655;53.210;5.768;2023-05-10T06:15:18;12.10;98.60
53748;DHT22;39655;53.210;5.768;2023-05-10T06:17:44;12.10;98.60
53748;DHT22;39655;53.210;5.768;2023-05-10T06:20:10;12.10;98.60
53748;DHT22;39655;53.210;5.768;2023-05-10T06:22:36;12.10;98.60
53748;DHT22;39655;53.210;5.768;2023-05-10T06:25:01;12.10;98.60
53748;DHT22;39655;53.210;5.768;2023-05-10T06:27:28;12.10;98.70
53748;DHT22;39655;53.210;5.768;2023-05-10T06:29:53;12.10;98.70
53748;DHT22;39655;53.210;5.768;2023-05-10T06:32:19;12.10;98.70
53748;DHT22;39655;53.210;5.768;2023-05-10T06:34:44;12.10;98.60
53748;DHT22;39655;53.210;5.768;2023-05-10T06:37:10;12.20;98.60
53748;DHT22;39655;53.210;5.768;2023-05-10T06:39:36;12.20;98.60
53748;DHT22;39655;53.210;5.768;2023-05-10T06:42:02;12.30;98.60
53748;DHT22;39655;53.210;5.768;2023-05-10T06:44:30;12.20;98.60
53748;DHT22;39655;53.210;5.768;2023-05-10T06:46:55;12.30;98.60
53748;DHT22;39655;53.210;5.768;2023-05-10T06:49:21;12.30;98.60
53748;DHT22;39655;53.210;5.768;2023-05-10T06:51:47;12.30;98.60
53748;DHT22;39655;53.210;5.768;2023-05-10T06:54:13;12.40;98.60
53748;DHT22;39655;53.210;5.768;2023-05-10T06:56:39;12.40;98.50
53748;DHT22;39655;53.210;5.768;2023-05-10T06:59:05;12.40;98.50
53748;DHT22;39655;53.210;5.768;2023-05-10T07:01:30;12.40;98.40
53748;DHT22;39655;53.210;5.768;2023-05-10T07:03:56;12.30;98.40
53748;DHT22;39655;53.210;5.768;2023-05-10T07:06:22;12.40;98.40
53748;DHT22;39655;53.210;5.768;2023-05-10T07:08:47;12.40;98.40
53748;DHT22;39655;53.210;5.768;2023-05-10T07:11:13;12.40;98.20
53748;DHT22;39655;53.210;5.768;2023-05-10T07:13:38;12.30;98.20
53748;DHT22;39655;53.210;5.768;2023-05-10T07:16:06;12.30;98.10
53748;DHT22;39655;53.210;5.768;2023-05-10T07:18:33;12.30;98.00
53748;DHT22;39655;53.210;5.768;2023-05-10T07:20:58;12.40;98.00
53748;DHT22;39655;53.210;5.768;2023-05-10T07:23:24;12.40;97.90
53748;DHT22;39655;53.210;5.768;2023-05-10T07:25:51;12.40;97.90
53748;DHT22;39655;53.210;5.768;2023-05-10T07:28:17;12.50;97.90
53748;DHT22;39655;53.210;5.768;2023-05-10T07:30:44;12.60;97.90
53748;DHT22;39655;53.210;5.768;2023-05-10T07:33:10;12.60;97.70
53748;DHT22;39655;53.210;5.768;2023-05-10T07:35:36;12.60;97.70
53748;DHT22;39655;53.210;5.768;2023-05-10T07:38:02;12.60;97.80
53748;DHT22;39655;53.210;5.768;2023-05-10T07:40:28;12.70;97.80
53748;DHT22;39655;53.210;5.768;2023-05-10T07:42:54;12.70;97.70
53748;DHT22;39655;53.210;5.768;2023-05-10T07:45:20;12.70;97.70
53748;DHT22;39655;53.210;5.768;2023-05-10T07:47:45;12.80;97.70
53748;DHT22;39655;53.210;5.768;2023-05-10T07:50:11;12.80;97.60
53748;DHT22;39655;53.210;5.768;2023-05-10T07:52:37;12.80;97.50
53748;DHT22;39655;53.210;5.768;2023-05-10T07:55:02;12.90;97.40
53748;DHT22;39655;53.210;5.768;2023-05-10T07:57:28;13.00;97.30
53748;DHT22;39655;53.210;5.768;2023-05-10T07:59:54;13.10;97.30
53748;DHT22;39655;53.210;5.768;2023-05-10T08:02:19;13.10;97.00
53748;DHT22;39655;53.210;5.768;2023-05-10T08:04:45;13.10;96.90
53748;DHT22;39655;53.210;5.768;2023-05-10T08:07:10;13.00;96.90
53748;DHT22;39655;53.210;5.768;2023-05-10T08:09:36;13.10;96.50
53748;DHT22;39655;53.210;5.768;2023-05-10T08:12:02;13.10;96.30
53748;DHT22;39655;53.210;5.768;2023-05-10T08:14:28;13.00;96.20
53748;DHT22;39655;53.210;5.768;2023-05-10T08:16:54;13.10;96.10
53748;DHT22;39655;53.210;5.768;2023-05-10T08:19:20;13.10;96.00
53748;DHT22;39655;53.210;5.768;2023-05-10T08:21:47;13.10;95.60
53748;DHT22;39655;53.210;5.768;2023-05-10T08:24:12;13.10;95.20
53748;DHT22;39655;53.210;5.768;2023-05-10T08:26:38;13.10;95.50
53748;DHT22;39655;53.210;5.768;2023-05-10T08:29:04;13.20;95.50
53748;DHT22;39655;53.210;5.768;2023-05-10T08:31:29;13.20;95.60
53748;DHT22;39655;53.210;5.768;2023-05-10T08:33:55;13.20;95.50
53748;DHT22;39655;53.210;5.768;2023-05-10T08:36:21;13.20;95.30
53748;DHT22;39655;53.210;5.768;2023-05-10T08:38:52;13.20;95.40
53748;DHT22;39655;53.210;5.768;2023-05-10T08:41:20;13.40;95.60
53748;DHT22;39655;53.210;5.768;2023-05-10T08:43:47;13.50;95.30
53748;DHT22;39655;53.210;5.768;2023-05-10T08:46:16;13.50;94.70
53748;DHT22;39655;53.210;5.768;2023-05-10T08:48:46;13.50;94.80
53748;DHT22;39655;53.210;5.768;2023-05-10T08:51:36;13.50;94.20
53748;DHT22;39655;53.210;5.768;2023-05-10T08:54:05;13.60;93.70
53748;DHT22;39655;53.210;5.768;2023-05-10T08:56:31;13.60;93.60
53748;DHT22;39655;53.210;5.768;2023-05-10T08:58:57;13.60;93.00
53748;DHT22;39655;53.210;5.768;2023-05-10T09:01:23;13.60;93.30
53748;DHT22;39655;53.210;5.768;2023-05-10T09:03:50;13.70;93.00
53748;DHT22;39655;53.210;5.768;2023-05-10T09:06:16;13.70;92.40
53748;DHT22;39655;53.210;5.768;2023-05-10T09:08:42;13.60;92.70
53748;DHT22;39655;53.210;5.768;2023-05-10T09:11:09;13.70;93.10
53748;DHT22;39655;53.210;5.768;2023-05-10T09:13:35;13.80;93.30
53748;DHT22;39655;53.210;5.768;2023-05-10T09:16:03;13.90;93.40
53748;DHT22;39655;53.210;5.768;2023-05-10T09:18:28;13.90;92.60
53748;DHT22;39655;53.210;5.768;2023-05-10T09:20:54;13.90;92.20
53748;DHT22;39655;53.210;5.768;2023-05-10T09:23:20;13.80;92.40
53748;DHT22;39655;53.210;5.768;2023-05-10T09:25:46;13.80;92.40
53748;DHT22;39655;53.210;5.768;2023-05-10T09:28:12;13.80;92.50
53748;DHT22;39655;53.210;5.768;2023-05-10T09:30:37;13.80;92.30
53748;DHT22;39655;53.210;5.768;2023-05-10T09:33:03;13.80;92.50
53748;DHT22;39655;53.210;5.768;2023-05-10T09:35:31;13.90;92.50
53748;DHT22;39655;53.210;5.768;2023-05-10T09:38:02;13.90;92.10
53748;DHT22;39655;53.210;5.768;2023-05-10T09:40:29;13.90;92.20
53748;DHT22;39655;53.210;5.768;2023-05-10T09:42:59;13.90;91.80
53748;DHT22;39655;53.210;5.768;2023-05-10T09:45:30;13.80;91.60
53748;DHT22;39655;53.210;5.768;2023-05-10T09:47:57;13.80;91.70
53748;DHT22;39655;53.210;5.768;2023-05-10T09:50:23;14.00;92.10
53748;DHT22;39655;53.210;5.768;2023-05-10T09:53:02;14.00;91.60
53748;DHT22;39655;53.210;5.768;2023-05-10T09:55:44;14.10;91.70
53748;DHT22;39655;53.210;5.768;2023-05-10T09:58:10;14.20;92.00
53748;DHT22;39655;53.210;5.768;2023-05-10T10:00:41;14.30;91.30
53748;DHT22;39655;53.210;5.768;2023-05-10T10:03:15;14.20;91.40
53748;DHT22;39655;53.210;5.768;2023-05-10T10:05:42;14.10;90.60
53748;DHT22;39655;53.210;5.768;2023-05-10T10:08:09;14.00;91.20
53748;DHT22;39655;53.210;5.768;2023-05-10T10:10:35;14.00;91.70
53748;DHT22;39655;53.210;5.768;2023-05-10T10:13:02;14.00;91.50
53748;DHT22;39655;53.210;5.768;2023-05-10T10:15:27;14.10;91.60
53748;DHT22;39655;53.210;5.768;2023-05-10T10:17:54;14.10;91.30
53748;DHT22;39655;53.210;5.768;2023-05-10T10:20:21;14.30;91.10
53748;DHT22;39655;53.210;5.768;2023-05-10T10:22:48;14.40;91.20
53748;DHT22;39655;53.210;5.768;2023-05-10T10:25:15;14.50;90.70
53748;DHT22;39655;53.210;5.768;2023-05-10T10:35:36;15.10;88.10
53748;DHT22;39655;53.210;5.768;2023-05-10T10:38:02;15.10;86.80
53748;DHT22;39655;53.210;5.768;2023-05-10T10:40:34;15.10;87.30
53748;DHT22;39655;53.210;5.768;2023-05-10T10:43:23;15.20;86.90
53748;DHT22;39655;53.210;5.768;2023-05-10T10:46:15;15.30;85.70
53748;DHT22;39655;53.210;5.768;2023-05-10T10:48:50;15.40;86.60
53748;DHT22;39655;53.210;5.768;2023-05-10T10:51:37;15.60;86.30
53748;DHT22;39655;53.210;5.768;2023-05-10T10:54:10;15.90;85.10
53748;DHT22;39655;53.210;5.768;2023-05-10T10:56:35;15.80;83.20
53748;DHT22;39655;53.210;5.768;2023-05-10T10:59:01;15.60;84.60
53748;DHT22;39655;53.210;5.768;2023-05-10T11:01:32;15.70;84.40
53748;DHT22;39655;53.210;5.768;2023-05-10T11:06:31;15.60;84.30
53748;DHT22;39655;53.210;5.768;2023-05-10T11:08:57;15.70;84.70
53748;DHT22;39655;53.210;5.768;2023-05-10T11:11:23;15.90;84.30
53748;DHT22;39655;53.210;5.768;2023-05-10T11:13:48;15.90;83.80
53748;DHT22;39655;53.210;5.768;2023-05-10T11:16:18;16.00;82.80
53748;DHT22;39655;53.210;5.768;2023-05-10T11:19:07;15.90;82.80
53748;DHT22;39655;53.210;5.768;2023-05-10T11:21:34;15.90;83.70
53748;DHT22;39655;53.210;5.768;2023-05-10T11:24:13;16.00;84.60
53748;DHT22;39655;53.210;5.768;2023-05-10T11:26:40;16.20;83.30
53748;DHT22;39655;53.210;5.768;2023-05-10T11:29:06;16.20;83.10
53748;DHT22;39655;53.210;5.768;2023-05-10T11:31:31;16.20;83.30
53748;DHT22;39655;53.210;5.768;2023-05-10T11:33:59;16.30;81.40
53748;DHT22;39655;53.210;5.768;2023-05-10T11:36:35;16.10;81.90
53748;DHT22;39655;53.210;5.768;2023-05-10T11:39:01;16.10;81.70
53748;DHT22;39655;53.210;5.768;2023-05-10T11:41:29;16.10;81.20
53748;DHT22;39655;53.210;5.768;2023-05-10T11:43:57;16.10;81.70
53748;DHT22;39655;53.210;5.768;2023-05-10T11:46:24;16.10;82.50
53748;DHT22;39655;53.210;5.768;2023-05-10T11:48:55;16.10;81.50
53748;DHT22;39655;53.210;5.768;2023-05-10T11:51:22;16.20;81.10
53748;DHT22;39655;53.210;5.768;2023-05-10T11:53:49;16.10;81.10
53748;DHT22;39655;53.210;5.768;2023-05-10T11:56:16;16.20;82.00
53748;DHT22;39655;53.210;5.768;2023-05-10T11:58:41;16.40;80.00
53748;DHT22;39655;53.210;5.768;2023-05-10T12:01:08;16.50;81.30
53748;DHT22;39655;53.210;5.768;2023-05-10T12:03:34;16.70;79.00
53748;DHT22;39655;53.210;5.768;2023-05-10T12:06:03;16.70;79.30
53748;DHT22;39655;53.210;5.768;2023-05-10T12:08:29;16.60;79.50
53748;DHT22;39655;53.210;5.768;2023-05-10T12:11:07;16.60;80.20
53748;DHT22;39655;53.210;5.768;2023-05-10T12:13:38;16.80;80.50
53748;DHT22;39655;53.210;5.768;2023-05-10T12:16:19;17.10;78.00
53748;DHT22;39655;53.210;5.768;2023-05-10T12:18:53;17.20;78.70
53748;DHT22;39655;53.210;5.768;2023-05-10T12:21:22;17.10;76.90
53748;DHT22;39655;53.210;5.768;2023-05-10T12:23:52;17.20;77.30
53748;DHT22;39655;53.210;5.768;2023-05-10T12:26:18;17.10;77.90
53748;DHT22;39655;53.210;5.768;2023-05-10T12:28:46;17.30;78.80
53748;DHT22;39655;53.210;5.768;2023-05-10T12:31:12;17.50;76.10
53748;DHT22;39655;53.210;5.768;2023-05-10T12:33:39;17.40;76.70
53748;DHT22;39655;53.210;5.768;2023-05-10T12:36:15;17.10;77.80
53748;DHT22;39655;53.210;5.768;2023-05-10T12:38:45;17.10;78.90
53748;DHT22;39655;53.210;5.768;2023-05-10T12:41:30;17.00;78.10
53748;DHT22;39655;53.210;5.768;2023-05-10T12:43:59;17.00;79.00
53748;DHT22;39655;53.210;5.768;2023-05-10T12:46:25;17.00;78.00
53748;DHT22;39655;53.210;5.768;2023-05-10T12:48:53;16.80;79.10
53748;DHT22;39655;53.210;5.768;2023-05-10T12:51:20;17.00;79.00
53748;DHT22;39655;53.210;5.768;2023-05-10T12:53:47;17.40;77.20
53748;DHT22;39655;53.210;5.768;2023-05-10T12:56:13;17.60;74.80
53748;DHT22;39655;53.210;5.768;2023-05-10T12:58:39;17.50;75.10
53748;DHT22;39655;53.210;5.768;2023-05-10T13:01:05;17.30;76.60
53748;DHT22;39655;53.210;5.768;2023-05-10T13:03:30;17.20;76.80
53748;DHT22;39655;53.210;5.768;2023-05-10T13:05:56;17.10;77.30
53748;DHT22;39655;53.210;5.768;2023-05-10T13:08:22;17.10;77.20
53748;DHT22;39655;53.210;5.768;2023-05-10T13:10:48;17.10;76.70
53748;DHT22;39655;53.210;5.768;2023-05-10T13:13:14;17.20;77.00
53748;DHT22;39655;53.210;5.768;2023-05-10T13:15:39;17.10;76.60
53748;DHT22;39655;53.210;5.768;2023-05-10T13:18:05;17.10;78.20
53748;DHT22;39655;53.210;5.768;2023-05-10T13:20:31;17.10;78.80
53748;DHT22;39655;53.210;5.768;2023-05-10T13:22:56;17.30;77.20
53748;DHT22;39655;53.210;5.768;2023-05-10T13:25:24;17.40;76.90
53748;DHT22;39655;53.210;5.768;2023-05-10T13:27:50;17.60;77.10
53748;DHT22;39655;53.210;5.768;2023-05-10T13:30:15;17.80;75.70
53748;DHT22;39655;53.210;5.768;2023-05-10T13:32:41;18.10;72.40
53748;DHT22;39655;53.210;5.768;2023-05-10T13:35:08;18.50;72.50
53748;DHT22;39655;53.210;5.768;2023-05-10T13:37:36;18.80;69.50
53748;DHT22;39655;53.210;5.768;2023-05-10T13:40:03;18.60;72.10
53748;DHT22;39655;53.210;5.768;2023-05-10T13:42:29;18.30;73.30
53748;DHT22;39655;53.210;5.768;2023-05-10T13:44:57;17.90;75.50
53748;DHT22;39655;53.210;5.768;2023-05-10T13:47:22;17.60;75.30
53748;DHT22;39655;53.210;5.768;2023-05-10T13:49:48;17.30;76.30
53748;DHT22;39655;53.210;5.768;2023-05-10T13:52:14;17.20;76.60
53748;DHT22;39655;53.210;5.768;2023-05-10T13:54:39;17.10;77.70
53748;DHT22;39655;53.210;5.768;2023-05-10T13:57:05;17.20;77.20
53748;DHT22;39655;53.210;5.768;2023-05-10T13:59:31;17.90;76.00
53748;DHT22;39655;53.210;5.768;2023-05-10T14:01:58;18.30;72.40
53748;DHT22;39655;53.210;5.768;2023-05-10T14:04:24;18.70;72.00
53748;DHT22;39655;53.210;5.768;2023-05-10T14:06:50;18.80;71.80
53748;DHT22;39655;53.210;5.768;2023-05-10T14:09:15;18.80;72.30
53748;DHT22;39655;53.210;5.768;2023-05-10T14:11:41;19.00;71.40
53748;DHT22;39655;53.210;5.768;2023-05-10T14:14:09;19.20;69.20
53748;DHT22;39655;53.210;5.768;2023-05-10T14:16:34;18.90;70.70
53748;DHT22;39655;53.210;5.768;2023-05-10T14:19:00;19.10;70.20
53748;DHT22;39655;53.210;5.768;2023-05-10T14:21:27;19.50;70.40
53748;DHT22;39655;53.210;5.768;2023-05-10T14:23:54;19.80;68.30
53748;DHT22;39655;53.210;5.768;2023-05-10T14:26:21;19.60;70.00
53748;DHT22;39655;53.210;5.768;2023-05-10T14:28:47;19.60;67.20
53748;DHT22;39655;53.210;5.768;2023-05-10T14:31:15;19.30;68.80
53748;DHT22;39655;53.210;5.768;2023-05-10T14:33:42;18.80;70.50
53748;DHT22;39655;53.210;5.768;2023-05-10T14:36:08;18.60;72.10
53748;DHT22;39655;53.210;5.768;2023-05-10T14:38:34;18.90;70.10
53748;DHT22;39655;53.210;5.768;2023-05-10T14:41:00;18.90;70.50
53748;DHT22;39655;53.210;5.768;2023-05-10T14:43:25;18.70;71.30
53748;DHT22;39655;53.210;5.768;2023-05-10T14:45:52;18.20;71.90
53748;DHT22;39655;53.210;5.768;2023-05-10T14:48:18;17.70;73.00
53748;DHT22;39655;53.210;5.768;2023-05-10T14:50:45;17.40;73.90
53748;DHT22;39655;53.210;5.768;2023-05-10T14:53:11;17.10;76.00
53748;DHT22;39655;53.210;5.768;2023-05-10T14:55:37;16.70;77.50
53748;DHT22;39655;53.210;5.768;2023-05-10T14:58:03;16.70;77.40
53748;DHT22;39655;53.210;5.768;2023-05-10T15:00:29;16.60;76.80
53748;DHT22;39655;53.210;5.768;2023-05-10T15:02:55;16.80;76.50
53748;DHT22;39655;53.210;5.768;2023-05-10T15:05:22;16.90;76.20
53748;DHT22;39655;53.210;5.768;2023-05-10T15:07:47;16.90;75.90
53748;DHT22;39655;53.210;5.768;2023-05-10T15:10:14;16.70;76.00
53748;DHT22;39655;53.210;5.768;2023-05-10T15:12:40;16.50;77.70
53748;DHT22;39655;53.210;5.768;2023-05-10T15:15:06;16.50;77.90
53748;DHT22;39655;53.210;5.768;2023-05-10T15:17:32;16.50;77.20
53748;DHT22;39655;53.210;5.768;2023-05-10T15:19:58;16.30;78.40
53748;DHT22;39655;53.210;5.768;2023-05-10T15:22:24;16.30;77.90
53748;DHT22;39655;53.210;5.768;2023-05-10T15:24:49;16.30;78.20
53748;DHT22;39655;53.210;5.768;2023-05-10T15:27:15;16.40;77.30
53748;DHT22;39655;53.210;5.768;2023-05-10T15:29:41;16.40;77.60
53748;DHT22;39655;53.210;5.768;2023-05-10T15:32:06;16.10;78.40
53748;DHT22;39655;53.210;5.768;2023-05-10T15:34:32;16.20;78.40
53748;DHT22;39655;53.210;5.768;2023-05-10T15:36:58;16.00;78.70
53748;DHT22;39655;53.210;5.768;2023-05-10T15:39:23;15.70;79.30
53748;DHT22;39655;53.210;5.768;2023-05-10T15:41:49;15.70;80.40
53748;DHT22;39655;53.210;5.768;2023-05-10T15:44:15;15.70;80.70
53748;DHT22;39655;53.210;5.768;2023-05-10T15:46:43;15.70;79.50
53748;DHT22;39655;53.210;5.768;2023-05-10T15:49:12;15.60;80.20
53748;DHT22;39655;53.210;5.768;2023-05-10T15:51:37;15.60;80.30
53748;DHT22;39655;53.210;5.768;2023-05-10T15:54:03;15.70;81.10
53748;DHT22;39655;53.210;5.768;2023-05-10T15:56:31;15.80;80.90
53748;DHT22;39655;53.210;5.768;2023-05-10T15:58:58;15.90;80.00
53748;DHT22;39655;53.210;5.768;2023-05-10T16:01:23;15.90;79.60